createdAt,value
2022-08-12T00:02:46.057Z,39.57
2022-08-12T00:06:08.105Z,39.75
2022-08-12T00:09:27.907Z,39.52
2022-08-12T00:12:48.105Z,40.05
2022-08-12T00:16:09.146Z,39.40
2022-08-12T00:19:29.238Z,38.95
2022-08-12T00:22:58.658Z,40.13
2022-08-12T00:26:22.975Z,39.17
2022-08-12T00:29:47.784Z,38.15
2022-08-12T00:33:09.761Z,38.66
2022-08-12T00:36:35.295Z,38.83
2022-08-12T00:39:58.024Z,38.77
2022-08-12T00:42:59.848Z,38.74
2022-08-12T00:46:19.899Z,38.00
2022-08-12T00:49:25.777Z,37.88
2022-08-12T00:52:27.319Z,38.06
2022-08-12T00:55:28.892Z,37.94
2022-08-12T00:58:31.798Z,38.70
2022-08-12T01:02:10.503Z,38.31
2022-08-12T01:05:19.027Z,39.23
2022-08-12T01:08:39.288Z,38.33
2022-08-12T01:11:40.791Z,38.29
2022-08-12T01:14:46.265Z,38.44
2022-08-12T01:17:49.140Z,38.33
2022-08-12T01:20:53.388Z,38.43
2022-08-12T01:24:30.391Z,38.68
2022-08-12T01:27:35.286Z,39.18
2022-08-12T01:30:39.995Z,38.76
2022-08-12T01:34:00.685Z,40.02
2022-08-12T01:37:02.909Z,38.89
2022-08-12T01:40:34.776Z,39.52
2022-08-12T01:43:27.378Z,38.48
2022-08-12T01:46:38.899Z,39.39
2022-08-12T01:49:40.273Z,38.61
2022-08-12T01:52:53.822Z,38.32
2022-08-12T01:55:56.516Z,38.41
2022-08-12T01:59:20.858Z,39.94
2022-08-12T02:02:35.026Z,38.62
2022-08-12T02:06:04.436Z,38.40
2022-08-12T02:09:29.426Z,38.17
2022-08-12T02:12:42.880Z,39.33
2022-08-12T02:16:06.842Z,38.57
2022-08-12T02:19:30.138Z,37.99
2022-08-12T02:22:34.744Z,37.99
2022-08-12T02:25:45.707Z,38.42
2022-08-12T02:28:47.784Z,39.41
2022-08-12T02:31:50.238Z,39.27
2022-08-12T02:34:52.677Z,39.44
2022-08-12T02:37:57.626Z,38.91
2022-08-12T02:41:03.181Z,40.07
2022-08-12T02:44:09.114Z,39.12
2022-08-12T02:47:58.631Z,40.48
2022-08-12T02:50:36.548Z,39.76
2022-08-12T02:53:39.100Z,39.61
2022-08-12T02:56:50.694Z,40.78
2022-08-12T02:59:53.905Z,40.47
2022-08-12T03:02:59.769Z,41.17
2022-08-12T03:06:07.119Z,40.08
2022-08-12T03:09:13.497Z,41.83
2022-08-12T03:12:20.180Z,41.30
2022-08-12T03:15:23.863Z,41.75
2022-08-12T03:18:32.774Z,42.99
2022-08-12T03:21:52.998Z,43.36
2022-08-12T03:25:05.333Z,42.25
2022-08-12T03:28:11.609Z,42.55
2022-08-12T03:31:33.596Z,43.93
2022-08-12T03:34:37.324Z,42.83
2022-08-12T03:37:40.215Z,44.07
2022-08-12T03:41:23.947Z,43.23
2022-08-12T03:44:52.758Z,43.84
2022-08-12T03:48:19.301Z,43.96
2022-08-12T03:51:39.755Z,43.73
2022-08-12T03:54:59.899Z,46.24
2022-08-12T03:58:20.475Z,46.13
2022-08-12T04:01:28.171Z,44.12
2022-08-12T04:04:36.041Z,44.69
2022-08-12T04:07:37.798Z,45.52
2022-08-12T04:11:45.661Z,44.70
2022-08-12T04:14:49.722Z,45.18
2022-08-12T04:18:06.716Z,47.46
2022-08-12T04:21:12.673Z,49.12
2022-08-12T04:24:14.236Z,46.72
2022-08-12T04:27:15.718Z,47.62
2022-08-12T04:30:32.696Z,48.45
2022-08-12T04:33:36.384Z,48.25
2022-08-12T04:36:40.626Z,49.07
2022-08-12T04:39:43.220Z,50.81
2022-08-12T04:42:45.624Z,51.46
2022-08-12T04:45:49.355Z,51.68
2022-08-12T04:48:54.499Z,53.50
2022-08-12T04:51:59.099Z,54.37
2022-08-12T04:55:01.491Z,53.59
2022-08-12T04:58:03.051Z,54.40
2022-08-12T05:01:05.226Z,51.06
2022-08-12T05:04:08.280Z,55.87
2022-08-12T05:07:09.875Z,54.52
2022-08-12T05:10:11.465Z,55.58
2022-08-12T05:13:16.710Z,58.97
2022-08-12T05:16:18.343Z,57.80
2022-08-12T05:19:29.418Z,61.26
2022-08-12T05:22:32.490Z,65.04
2022-08-12T05:25:38.744Z,63.13
2022-08-12T05:28:41.134Z,64.00
2022-08-12T05:31:48.403Z,63.03
2022-08-12T05:34:50.641Z,67.63
2022-08-12T05:38:15.045Z,74.73
2022-08-12T05:41:20.331Z,70.12
2022-08-12T05:44:21.838Z,72.44
2022-08-12T05:47:23.317Z,75.32
2022-08-12T05:50:43.412Z,81.19
2022-08-12T05:53:45.242Z,73.17
2022-08-12T05:56:48.279Z,77.98
2022-08-12T05:59:49.789Z,76.93
2022-08-12T06:03:01.016Z,71.57
2022-08-12T06:06:04.539Z,73.68
2022-08-12T06:09:05.978Z,74.64
2022-08-12T06:12:07.830Z,71.92
2022-08-12T06:15:09.806Z,71.15
2022-08-12T06:18:15.952Z,72.72
2022-08-12T06:21:23.687Z,72.59
2022-08-12T06:24:28.591Z,76.36
2022-08-12T06:27:30.054Z,57.88
2022-08-12T06:30:38.496Z,63.30
2022-08-12T06:34:00.625Z,60.73
2022-08-12T06:37:07.314Z,62.90
2022-08-12T06:40:10.548Z,62.22
2022-08-12T06:43:13.434Z,64.08
2022-08-12T06:46:14.925Z,56.99
2022-08-12T06:49:16.400Z,60.04
2022-08-12T06:52:24.249Z,54.86
2022-08-12T06:55:26.057Z,53.69
2022-08-12T06:58:29.330Z,52.63
2022-08-12T07:01:32.074Z,54.41
2022-08-12T07:04:37.946Z,53.49
2022-08-12T07:07:41.730Z,52.26
2022-08-12T07:10:45.755Z,51.79
2022-08-12T07:14:11.968Z,51.19
2022-08-12T07:17:13.902Z,49.09
2022-08-12T07:20:49.858Z,49.20
2022-08-12T07:23:41.578Z,48.09
2022-08-12T07:26:44.611Z,46.89
2022-08-12T07:29:57.876Z,46.33
2022-08-12T07:33:09.243Z,45.87
2022-08-12T07:36:13.867Z,45.35
2022-08-12T07:39:15.476Z,45.33
2022-08-12T07:42:17.139Z,45.90
2022-08-12T07:45:20.518Z,48.89
2022-08-12T07:48:24.202Z,45.81
2022-08-12T07:51:26.051Z,46.21
2022-08-12T07:54:27.575Z,45.13
2022-08-12T07:57:29.032Z,44.18
2022-08-12T08:00:34.178Z,47.48
2022-08-12T08:03:36.722Z,45.15
2022-08-12T08:06:49.718Z,44.36
2022-08-12T08:09:58.659Z,42.52
2022-08-12T08:13:05.046Z,42.18
2022-08-12T08:16:08.214Z,44.00
2022-08-12T08:19:19.190Z,44.02
2022-08-12T08:22:40.509Z,42.82
2022-08-12T08:25:44.681Z,41.88
2022-08-12T08:28:46.866Z,41.00
2022-08-12T08:31:59.864Z,42.03
2022-08-12T08:35:01.285Z,43.07
2022-08-12T08:38:08.400Z,41.60
2022-08-12T08:42:18.915Z,40.33
2022-08-12T08:44:58.796Z,41.06
2022-08-12T08:48:00.678Z,39.39
2022-08-12T08:51:06.078Z,39.60
2022-08-12T08:54:08.578Z,41.21
2022-08-12T08:57:10.151Z,37.67
2022-08-12T09:00:15.526Z,37.49
2022-08-12T09:05:09.476Z,38.64
2022-08-12T09:06:53.650Z,37.63
2022-08-12T09:10:02.032Z,37.06
2022-08-12T09:14:10.187Z,38.41
2022-08-12T09:16:45.890Z,37.84
2022-08-12T09:19:57.467Z,36.33
2022-08-12T09:23:01.467Z,37.21
2022-08-12T09:26:09.809Z,35.11
2022-08-12T09:29:14.278Z,36.18
2022-08-12T09:32:56.321Z,33.35
2022-08-12T09:35:42.896Z,34.29
2022-08-12T09:38:58.984Z,34.33
2022-08-12T09:42:39.128Z,32.52
2022-08-12T09:46:06.328Z,33.62
2022-08-12T09:49:13.577Z,33.24
2022-08-12T09:52:19.055Z,32.89
2022-08-12T09:56:06.552Z,33.28
2022-08-12T09:59:00.042Z,34.08
2022-08-12T10:02:53.159Z,33.80
2022-08-12T10:06:11.899Z,32.34
2022-08-12T10:08:52.385Z,31.49
2022-08-12T10:12:13.237Z,31.23
2022-08-12T10:15:15.266Z,31.32
2022-08-12T10:18:52.083Z,31.31
2022-08-12T10:21:56.847Z,32.25
2022-08-12T10:25:17.365Z,32.48
2022-08-12T10:28:38.888Z,31.62
2022-08-12T10:32:19.521Z,30.64
2022-08-12T10:35:02.141Z,29.91
2022-08-12T10:38:38.983Z,29.65
2022-08-12T10:41:56.980Z,30.58
2022-08-12T10:45:06.315Z,31.02
2022-08-12T10:48:21.608Z,29.85
2022-08-12T10:51:56.474Z,29.84
2022-08-12T10:54:52.964Z,30.35
2022-08-12T10:58:15.560Z,30.06
2022-08-12T11:01:50.212Z,30.00
2022-08-12T11:04:48.853Z,28.42
2022-08-12T11:08:37.583Z,28.77
2022-08-12T11:11:27.661Z,29.65
2022-08-12T11:14:49.863Z,29.27
2022-08-12T11:17:55.722Z,30.33
2022-08-12T11:20:59.208Z,29.57
2022-08-12T11:24:01.702Z,27.74
2022-08-12T11:27:08.724Z,28.62
2022-08-12T11:30:31.145Z,28.66
2022-08-12T11:34:06.466Z,27.71
2022-08-12T11:37:07.180Z,28.87
2022-08-12T11:40:28.729Z,26.94
2022-08-12T11:43:30.907Z,29.10
2022-08-12T11:46:36.648Z,28.55
2022-08-12T11:49:38.105Z,28.21
2022-08-12T11:52:56.791Z,28.65
2022-08-12T11:55:58.728Z,27.41
2022-08-12T12:02:02.996Z,28.85
2022-08-12T12:02:21.801Z,27.25
2022-08-12T12:05:28.593Z,29.40
2022-08-12T12:08:47.018Z,27.50
2022-08-12T12:11:52.674Z,27.06
2022-08-12T12:14:57.924Z,27.75
2022-08-12T12:18:01.935Z,25.94
2022-08-12T12:21:08.389Z,27.18
2022-08-12T12:24:09.922Z,25.12
2022-08-12T12:27:11.402Z,25.74
2022-08-12T12:30:29.833Z,26.29
2022-08-12T12:33:57.366Z,26.17
2022-08-12T12:36:54.896Z,25.53
2022-08-12T12:39:59.701Z,24.49
2022-08-12T12:43:05.212Z,24.90
2022-08-12T12:46:07.199Z,25.23
2022-08-12T12:49:10.984Z,25.33
2022-08-12T12:52:18.923Z,26.94
2022-08-12T12:55:22.875Z,25.62
2022-08-12T12:58:24.431Z,25.21
2022-08-12T13:01:31.071Z,24.99
2022-08-12T13:04:35.163Z,24.70
2022-08-12T13:07:54.514Z,26.79
2022-08-12T13:11:00.651Z,26.13
2022-08-12T13:14:09.923Z,27.50
2022-08-12T13:17:17.461Z,26.16
2022-08-12T13:20:37.482Z,25.72
2022-08-12T13:23:44.813Z,25.55
2022-08-12T13:26:46.350Z,26.84
2022-08-12T13:29:48.959Z,27.13
2022-08-12T13:32:58.761Z,26.85
2022-08-12T13:36:04.734Z,28.47
2022-08-12T13:39:09.522Z,26.25
2022-08-12T13:42:14.219Z,25.30
2022-08-12T13:45:16.664Z,24.30
2022-08-12T13:48:19.717Z,25.03
2022-08-12T13:51:24.628Z,26.95
2022-08-12T13:54:26.287Z,25.53
2022-08-12T13:57:46.927Z,25.42
2022-08-12T14:00:53.526Z,25.30
2022-08-12T14:03:55.078Z,23.15
2022-08-12T14:06:58.276Z,25.46
2022-08-12T14:10:20.248Z,25.17
2022-08-12T14:14:03.444Z,25.53
2022-08-12T14:16:52.095Z,27.18
2022-08-12T14:20:12.015Z,22.65
2022-08-12T14:24:01.318Z,22.96
2022-08-12T14:26:36.261Z,23.14
2022-08-12T14:30:04.967Z,25.01
2022-08-12T14:33:03.470Z,25.17
2022-08-12T14:36:08.679Z,25.33
2022-08-12T14:39:10.282Z,24.44
2022-08-12T14:42:14.068Z,25.58
2022-08-12T14:45:16.217Z,25.21
2022-08-12T14:48:24.708Z,25.04
2022-08-12T14:52:55.507Z,23.50
2022-08-12T14:58:11.179Z,22.93
2022-08-12T15:01:31.598Z,24.19
2022-08-12T15:04:33.075Z,23.86
2022-08-12T15:07:51.215Z,24.93
2022-08-12T15:10:57.254Z,23.21
2022-08-12T15:13:59.689Z,25.01
2022-08-12T15:17:01.211Z,23.69
2022-08-12T15:20:11.241Z,23.98
2022-08-12T15:23:33.005Z,22.99
2022-08-12T15:26:40.895Z,22.40
2022-08-12T15:29:42.478Z,23.43
2022-08-12T15:32:48.648Z,28.40
2022-08-12T15:35:53.219Z,23.29
2022-08-12T15:38:55.918Z,25.75
2022-08-12T15:42:01.956Z,24.12
2022-08-12T15:45:04.277Z,23.91
2022-08-12T15:48:17.056Z,26.65
2022-08-12T15:51:58.854Z,26.37
2022-08-12T15:54:51.728Z,26.23
2022-08-12T15:57:55.003Z,28.65
2022-08-12T16:00:56.432Z,25.18
2022-08-12T16:04:00.798Z,24.64
2022-08-12T16:07:09.274Z,24.31
2022-08-12T16:10:12.274Z,26.62
2022-08-12T16:13:25.109Z,26.97
2022-08-12T16:16:35.418Z,26.30
2022-08-12T16:20:03.519Z,24.36
2022-08-12T16:23:04.409Z,24.89
2022-08-12T16:26:20.310Z,26.44
2022-08-12T16:29:38.575Z,25.35
2022-08-12T16:32:54.644Z,29.82
2022-08-12T16:35:56.120Z,26.92
2022-08-12T16:39:01.532Z,26.68
2022-08-12T16:42:03.694Z,25.18
2022-08-12T16:45:08.284Z,26.83
2022-08-12T16:48:09.799Z,25.31
2022-08-12T16:51:31.341Z,23.45
2022-08-12T16:54:39.533Z,23.70
2022-08-12T16:57:44.280Z,22.65
2022-08-12T17:00:48.595Z,23.16
2022-08-12T17:04:09.035Z,23.38
2022-08-12T17:07:15.405Z,23.54
2022-08-12T17:10:35.940Z,21.50
2022-08-12T17:13:53.123Z,25.61
2022-08-12T17:16:55.761Z,24.94
2022-08-12T17:20:35.599Z,26.02
2022-08-12T17:23:33.225Z,24.60
2022-08-12T17:26:56.331Z,24.68
2022-08-12T17:30:04.200Z,26.16
2022-08-12T17:33:07.785Z,27.44
2022-08-12T17:36:10.670Z,26.74
2022-08-12T17:39:13.512Z,26.48
2022-08-12T17:42:34.894Z,26.45
2022-08-12T17:45:47.295Z,26.43
2022-08-12T17:48:55.554Z,25.99
2022-08-12T17:52:02.519Z,27.87
2022-08-12T17:55:40.696Z,26.25
2022-08-12T17:58:35.548Z,27.59
2022-08-12T18:01:44.309Z,28.14
2022-08-12T18:05:05.337Z,28.95
2022-08-12T18:08:11.025Z,29.04
2022-08-12T18:12:04.696Z,31.61
2022-08-12T18:15:01.052Z,30.20
2022-08-12T18:18:04.049Z,29.97
2022-08-12T18:21:08.532Z,31.38
2022-08-12T18:24:22.005Z,32.37
2022-08-12T18:27:44.667Z,33.57
2022-08-12T18:30:53.525Z,32.09
2022-08-12T18:34:00.856Z,31.60
2022-08-12T18:37:11.742Z,31.92
2022-08-12T18:40:45.620Z,34.86
2022-08-12T18:43:59.282Z,33.57
2022-08-12T18:47:06.315Z,34.16
2022-08-12T18:50:13.383Z,34.02
2022-08-12T18:54:05.116Z,35.94
2022-08-12T18:56:39.915Z,36.67
2022-08-12T19:00:02.130Z,36.14
2022-08-12T19:03:06.176Z,35.91
2022-08-12T19:06:28.156Z,36.28
2022-08-12T19:09:58.862Z,37.86
2022-08-12T19:13:23.184Z,36.85
2022-08-12T19:16:25.881Z,39.02
2022-08-12T19:19:27.729Z,38.65
2022-08-12T19:22:40.491Z,36.55
2022-08-12T19:26:01.207Z,36.10
2022-08-12T19:29:07.440Z,38.33
2022-08-12T19:32:14.199Z,36.59
2022-08-12T19:38:37.698Z,38.23
2022-08-12T19:42:00.539Z,39.50
2022-08-12T19:45:05.084Z,38.75
2022-08-12T19:48:16.598Z,39.17
2022-08-12T19:51:33.167Z,39.96
2022-08-12T19:54:35.445Z,40.71
2022-08-12T19:57:42.496Z,40.71
2022-08-12T20:00:58.415Z,41.27
2022-08-12T20:04:00.998Z,41.25
2022-08-12T20:07:03.033Z,42.94
2022-08-12T20:10:09.431Z,41.75
2022-08-12T20:13:18.299Z,42.42
2022-08-12T20:16:47.489Z,42.28
2022-08-12T20:20:16.423Z,43.88
2022-08-12T20:23:08.843Z,42.93
2022-08-12T20:26:11.141Z,44.20
2022-08-12T20:29:14.069Z,45.89
2022-08-12T20:32:20.596Z,46.02
2022-08-12T20:36:05.836Z,43.21
2022-08-12T20:38:54.196Z,45.22
2022-08-12T20:42:07.126Z,44.33
2022-08-12T20:45:09.556Z,44.30
2022-08-12T20:48:12.516Z,46.35
2022-08-12T20:51:19.256Z,46.95
2022-08-12T20:54:21.987Z,46.37
2022-08-12T20:57:23.720Z,46.39
2022-08-12T21:00:28.317Z,46.52
2022-08-12T21:03:52.850Z,45.50
2022-08-12T21:07:08.927Z,47.07
2022-08-12T21:10:12.367Z,46.83
2022-08-12T21:13:20.363Z,48.48
2022-08-12T21:16:35.328Z,48.45
2022-08-12T21:19:52.731Z,47.00
2022-08-12T21:22:55.746Z,47.67
2022-08-12T21:26:01.376Z,48.53
2022-08-12T21:29:10.280Z,49.75
2022-08-12T21:32:40.135Z,48.44
2022-08-12T21:35:35.827Z,50.01
2022-08-12T21:38:41.485Z,48.36
2022-08-12T21:41:43.038Z,49.61
2022-08-12T21:45:46.652Z,50.60
2022-08-12T21:48:08.425Z,50.16
2022-08-12T21:51:23.066Z,51.91
2022-08-12T21:54:25.000Z,49.39
2022-08-12T21:57:36.276Z,49.91
2022-08-12T22:00:53.021Z,49.73
2022-08-12T22:04:13.119Z,47.57
2022-08-12T22:07:18.593Z,47.08
2022-08-12T22:10:28.188Z,48.46
2022-08-12T22:14:07.746Z,49.04
2022-08-12T22:16:55.639Z,49.05
2022-08-12T22:19:57.259Z,48.83
2022-08-12T22:23:00.334Z,45.83
2022-08-12T22:26:05.639Z,44.20
2022-08-12T22:29:27.849Z,45.43
2022-08-12T22:32:29.962Z,46.18
2022-08-12T22:35:56.664Z,44.21
2022-08-12T22:38:55.672Z,42.42
2022-08-12T22:42:19.750Z,41.63
2022-08-12T22:45:56.292Z,40.94
2022-08-12T22:49:00.603Z,40.86
2022-08-12T22:52:10.415Z,41.13
2022-08-12T22:55:19.278Z,41.20
2022-08-12T22:58:41.256Z,41.85
2022-08-12T23:02:01.075Z,41.88
2022-08-12T23:05:03.815Z,40.87
2022-08-12T23:08:07.550Z,40.35
2022-08-12T23:11:17.922Z,40.97
2022-08-12T23:14:26.978Z,41.26
2022-08-12T23:17:40.267Z,41.21
2022-08-12T23:20:43.146Z,41.42
2022-08-12T23:24:09.152Z,41.49
2022-08-12T23:27:50.877Z,41.55
2022-08-12T23:30:50.253Z,41.87
2022-08-12T23:34:00.621Z,42.66
2022-08-12T23:37:06.729Z,42.59
2022-08-12T23:40:15.028Z,42.71
2022-08-12T23:43:18.110Z,43.06
2022-08-12T23:46:25.736Z,43.69
2022-08-12T23:49:57.989Z,43.17
2022-08-12T23:52:51.515Z,43.04
2022-08-12T23:55:54.786Z,43.02
2022-08-12T23:58:58.417Z,42.64
